This is the latest recevied weather packets stored in our database for station/object F1GZH-2. If no packets are shown the sender has not sent any weather packets the latest 10 day(s).
| Time | Temp. | Humidity | Pressure | Rain* | Wind** | Luminosity | Snow |
|---|---|---|---|---|---|---|---|
| 1777979621 | 15.56° C | 60% | 1013.2 hPa | 0 mm | - | - | - |
| 1777978420 | 15° C | 58% | 1013.3 hPa | 0 mm | - | - | - |
| 1777977218 | 15.56° C | 53% | 1013.4 hPa | 0 mm | - | - | - |
| 1777976017 | 15.56° C | 31% | 1013.5 hPa | 0 mm | - | - | - |
| 1777974816 | 14.44° C | 25% | 1013.7 hPa | 0 mm | - | - | - |
| 1777973615 | 13.89° C | 24% | 1013.8 hPa | 0 mm | - | - | - |
| 1777972414 | 13.89° C | 24% | 1013.7 hPa | 0 mm | - | - | - |
| 1777971213 | 13.89° C | 24% | 1013.7 hPa | 0 mm | - | - | - |
| 1777970012 | 13.33° C | 24% | 1013.9 hPa | 0 mm | - | - | - |
| 1777968811 | 13.33° C | 23% | 1014 hPa | 0 mm | - | - | - |
| 1777967610 | 12.78° C | 27% | 1014 hPa | 0 mm | - | - | - |
| 1777966408 | 12.22° C | 32% | 1014.1 hPa | 0 mm | - | - | - |
| 1777965207 | 12.22° C | 36% | 1014.3 hPa | 0 mm | - | - | - |
| 1777964006 | 12.22° C | 36% | 1014.4 hPa | 0 mm | - | - | - |
| 1777962805 | 12.78° C | 31% | 1014.4 hPa | 0 mm | - | - | - |
| 1777912569 | 31.11° C | 37% | 1017 hPa | 0 mm | - | - | - |
| 1777911368 | 31.11° C | 40% | 1017.1 hPa | 0 mm | - | - | - |
| 1777910167 | 28.33° C | 43% | 1017.3 hPa | 0 mm | - | - | - |
| 1777908966 | 25.56° C | 48% | 1017.4 hPa | 0 mm | - | - | - |
| 1777907765 | 28.89° C | 44% | 1017.3 hPa | 0 mm | - | - | - |
| 1777906564 | 23.89° C | 51% | 1017.4 hPa | 0 mm | - | - | - |
| 1777905363 | 21.67° C | 56% | 1017.5 hPa | 0 mm | - | - | - |
| 1777904161 | 25.56° C | 52% | 1017.7 hPa | 0 mm | - | - | - |
| 1777902960 | 23.33° C | 56% | 1017.7 hPa | 0 mm | - | - | - |
| 1777901759 | 21.67° C | 61% | 1017.9 hPa | 0 mm | - | - | - |
* Rain latest hour (hover to see other rain measurements)
** Current wind speed in m/s (hover to see current wind gust speed)